Caletta — ICNZ — position and weather

sailwx.info

Track history (hours):
 
Tides and Currents Weather Stations Pressure Air Temp Water Temp Dewpoint Dewpoint Depression Visibility Wind Speed Wind Dir Waves Ship Positions

Caletta

Last reported at 2017-Jul-19 14:45 UTC. Time now 2017-Jul-21 22:56 UTC.
Position N 26°23' W 014°55'.

Length 183 m; draft 10.4 m.

Type: Ship (hazmat cat A). MMSI: 247296300.

Date/timePositionNaut miles runAvg speedWind from/ knotsBaromVisibWave heightAir tempDewpointWater temp
2017-Jul-19 14:45N 26°23' W 014°55'1113.0
2017-Jul-19 13:54N 26°32' W 014°48'2912.7
2017-Jul-19 11:37N 26°56' W 014°29'212.7
2017-Jul-19 11:30N 26°57' W 014°28'1312.7
2017-Jul-19 10:28N 27°08' W 014°20'613.0
2017-Jul-19 10:00N 27°13' W 014°16'713.1
2017-Jul-19 09:30N 27°18' W 014°12'713.2
2017-Jul-19 09:00N 27°24' W 014°08'713.3
2017-Jul-19 08:29N 27°29' W 014°03'613.1
2017-Jul-19 08:00N 27°35' W 013°60'713.4
2017-Jul-19 07:30N 27°40' W 013°55'713.8
2017-Jul-19 07:00N 27°46' W 013°51'713.4
2017-Jul-19 06:30N 27°51' W 013°47'713.3
2017-Jul-19 06:00N 27°57' W 013°42'713.2
2017-Jul-19 05:30N 28°03' W 013°38'713.4
2017-Jul-19 05:00N 28°08' W 013°34'713.4
2017-Jul-19 04:30N 28°13' W 013°30'713.7
2017-Jul-19 04:00N 28°19' W 013°25'713.7
2017-Jul-19 03:30N 28°25' W 013°21'714.0
2017-Jul-19 03:00N 28°31' W 013°16'713.9
2017-Jul-19 02:30N 28°36' W 013°12'713.5
2017-Jul-19 02:00N 28°42' W 013°08'713.5
2017-Jul-19 01:30N 28°47' W 013°03'713.4
2017-Jul-19 01:00N 28°53' W 012°59'713.3
2017-Jul-19 00:30N 28°59' W 012°54'713.6
2017-Jul-19 00:00N 29°04' W 012°50'713.6
2017-Jul-18 23:30N 29°10' W 012°46'713.3
2017-Jul-18 23:00N 29°15' W 012°41'713.2
2017-Jul-18 22:30N 29°20' W 012°37'713.0
2017-Jul-18 22:00N 29°26' W 012°33'713.0
2017-Jul-18 21:29N 29°31' W 012°28'712.9
2017-Jul-18 20:57N 29°37' W 012°24'1512.8
2017-Jul-18 19:45N 29°50' W 012°14'1312.7
2017-Jul-18 18:43N 30°01' W 012°06'313.1
2017-Jul-18 18:30N 30°03' W 012°04'713.2
2017-Jul-18 17:58N 30°09' W 011°59'613.3
2017-Jul-18 17:30N 30°14' W 011°55'713.1
2017-Jul-18 17:00N 30°19' W 011°51'712.9
2017-Jul-18 16:30N 30°25' W 011°46'612.9
2017-Jul-18 16:00N 30°30' W 011°42'712.8
2017-Jul-18 15:28N 30°36' W 011°38'612.9
2017-Jul-18 15:00N 30°41' W 011°34'1313.1
2017-Jul-18 14:00N 30°51' W 011°25'713.4
2017-Jul-18 13:30N 30°57' W 011°21'713.7
2017-Jul-18 13:00N 31°03' W 011°17'713.4
2017-Jul-18 12:30N 31°08' W 011°12'713.5
2017-Jul-18 12:00N 31°14' W 011°08'813.6
2017-Jul-18 11:26N 31°20' W 011°03'613.7
2017-Jul-18 11:00N 31°25' W 010°59'813.6
2017-Jul-18 10:26N 31°31' W 010°53'613.8
2017-Jul-18 10:00N 31°36' W 010°50'813.7
2017-Jul-18 09:26N 31°43' W 010°44'613.4
2017-Jul-18 08:58N 31°48' W 010°40'713.0
2017-Jul-18 08:26N 31°54' W 010°35'612.9
2017-Jul-18 07:57N 31°59' W 010°31'613.1
2017-Jul-18 07:30N 32°04' W 010°28'713.4
2017-Jul-18 07:00N 32°09' W 010°23'713.6
2017-Jul-18 06:30N 32°15' W 010°19'713.4
2017-Jul-18 05:58N 32°21' W 010°14'3713.6
2017-Jul-18 03:17N 32°51' W 009°49'1513.8
2017-Jul-18 02:13N 33°02' W 009°37'613.8
2017-Jul-18 01:47N 33°06' W 009°32'413.8
2017-Jul-18 01:30N 33°09' W 009°29'1513.9
2017-Jul-18 00:25N 33°20' W 009°17'613.8
2017-Jul-17 23:59N 33°24' W 009°12'6013.2
2017-Jul-17 19:28N 34°07' W 008°22'3213.1
2017-Jul-17 17:02N 34°31' W 007°56'113.3
2017-Jul-17 16:59N 34°31' W 007°56'3413.3
2017-Jul-17 14:24N 34°56' W 007°27'813.3
2017-Jul-17 13:47N 35°02' W 007°20'2813.1
2017-Jul-17 11:38N 35°23' W 006°56'313.1
2017-Jul-17 11:25N 35°25' W 006°54'513.1
2017-Jul-17 11:00N 35°29' W 006°49'30212.3
2017-Jul-16 10:27N 37°16' W 000°59'613.1
2017-Jul-16 10:00N 37°20' W 000°53'713.2
2017-Jul-16 09:29N 37°24' W 000°47'1213.1
2017-Jul-16 08:34N 37°32' W 000°35'113.0
2017-Jul-16 08:30N 37°33' W 000°35'612.9
2017-Jul-16 08:00N 37°39' W 000°31'713.1
2017-Jul-16 07:30N 37°45' W 000°27'713.2
2017-Jul-16 06:59N 37°50' W 000°22'613.3
2017-Jul-16 06:30N 37°55' W 000°17'713.5
2017-Jul-16 06:00N 38°00' W 000°12'713.5
2017-Jul-16 05:28N 38°07' W 000°07'12112.9
2017-Jul-15 20:08N 39°42' E 001°28'212.5
2017-Jul-15 20:00N 39°43' E 001°29'612.5
2017-Jul-15 19:30N 39°48' E 001°34'612.3
2017-Jul-15 19:00N 39°53' E 001°39'611.9
2017-Jul-15 18:30N 39°58' E 001°44'712.0
2017-Jul-15 17:57N 40°03' E 001°50'512.1
2017-Jul-15 17:30N 40°07' E 001°55'612.1
2017-Jul-15 17:00N 40°11' E 001°60'612.2
2017-Jul-15 16:30N 40°16' E 002°05'612.3
2017-Jul-15 16:00N 40°21' E 002°10'612.1
2017-Jul-15 15:30N 40°25' E 002°15'612.1
2017-Jul-15 15:00N 40°30' E 002°20'1212.0
2017-Jul-15 14:00N 40°39' E 002°31'611.9
2017-Jul-15 13:30N 40°44' E 002°36'612.0
2017-Jul-15 13:00N 40°48' E 002°41'612.1
2017-Jul-15 12:30N 40°53' E 002°46'612.5
2017-Jul-15 12:00N 40°58' E 002°51'612.7
2017-Jul-15 11:30N 41°02' E 002°57'2212.7
2017-Jul-15 09:45N 41°20' E 003°16'11513.2
2017-Jul-15 01:03N 42°52' E 004°47'2313.4
2017-Jul-14 23:18N 43°13' E 005°01'413.6
2017-Jul-14 23:00N 43°17' E 004°59'612.0
2017-Jul-14 22:30N 43°23' E 004°58'1 2.8
2017-Jul-14 21:59N 43°24' E 004°60'0 0.0
2017-Jul-14 21:29N 43°24' E 004°60'0 0.0
2017-Jul-14 20:59N 43°24' E 004°60'0 0.0
2017-Jul-14 20:29N 43°24' E 004°60'0 0.0
2017-Jul-14 19:59N 43°24' E 004°60'0 0.0
2017-Jul-14 19:26N 43°24' E 004°60'0 0.0
2017-Jul-14 18:59N 43°24' E 004°60'0 0.0
2017-Jul-14 18:29N 43°24' E 004°60'0 0.0
2017-Jul-14 17:53N 43°24' E 004°60'0 0.0
2017-Jul-14 17:29N 43°24' E 004°60'0 0.0
2017-Jul-14 16:53N 43°24' E 004°60'0 0.0
2017-Jul-14 16:29N 43°24' E 004°60'0 0.0
2017-Jul-14 15:59N 43°24' E 004°60'0 0.0
2017-Jul-14 15:29N 43°24' E 004°60'0 0.0
2017-Jul-14 14:59N 43°24' E 004°60'0 0.0
2017-Jul-14 14:29N 43°24' E 004°60'0 0.0
2017-Jul-14 13:53N 43°24' E 004°60'0 0.0
2017-Jul-14 13:29N 43°24' E 004°60'0 0.0
2017-Jul-14 12:59N 43°24' E 004°60'0 0.0
2017-Jul-14 12:23N 43°24' E 004°60'0 0.0
2017-Jul-14 11:56N 43°24' E 004°60'0 0.0
2017-Jul-14 11:29N 43°24' E 004°60'0 0.0
2017-Jul-14 10:59N 43°24' E 004°60'0 0.0
2017-Jul-14 10:29N 43°24' E 004°60'0 0.0
2017-Jul-14 09:59N 43°24' E 004°60'0 0.0
2017-Jul-14 09:29N 43°24' E 004°60'0 0.0
2017-Jul-14 08:53N 43°24' E 004°60'0 0.0
2017-Jul-14 08:29N 43°24' E 004°60'0 0.0
2017-Jul-14 07:53N 43°24' E 004°60'0 0.0
2017-Jul-14 07:29N 43°24' E 004°60'0 0.0
2017-Jul-14 06:59N 43°24' E 004°60'0 0.0
2017-Jul-14 06:29N 43°24' E 004°60'0 0.0
2017-Jul-14 05:59N 43°24' E 004°60'0 0.0
2017-Jul-14 05:29N 43°24' E 004°60'0 0.0
2017-Jul-14 04:59N 43°24' E 004°60'0 0.0
2017-Jul-14 04:23N 43°24' E 004°60'0 0.0
2017-Jul-14 03:59N 43°24' E 004°60'0 0.0
2017-Jul-14 03:29N 43°24' E 004°60'0 0.0
2017-Jul-14 02:59N 43°24' E 004°60'0 0.0
2017-Jul-14 02:28N 43°24' E 004°60'0 0.0
2017-Jul-14 01:59N 43°24' E 004°60'0 0.0
2017-Jul-14 01:29N 43°24' E 004°60'0 0.0
2017-Jul-14 00:59N 43°24' E 004°60'0 0.0
2017-Jul-14 00:29N 43°24' E 004°60'0 0.0
2017-Jul-13 23:59N 43°24' E 004°60'0 0.0
2017-Jul-13 23:26N 43°24' E 004°60'0 0.0
2017-Jul-13 22:59N 43°24' E 004°60'0 0.0
2017-Jul-13 22:28N 43°24' E 004°60'0 0.0
2017-Jul-13 21:59N 43°24' E 004°60'0 0.0
2017-Jul-13 21:26N 43°24' E 004°60'0 0.0
2017-Jul-13 20:59N 43°24' E 004°60'0 0.0
2017-Jul-13 20:28N 43°24' E 004°60'0 0.0
2017-Jul-13 19:58N 43°24' E 004°60'0 0.0
2017-Jul-13 19:29N 43°24' E 004°60'0 0.0
2017-Jul-13 18:59N 43°24' E 004°60'0 0.0
2017-Jul-13 18:29N 43°24' E 004°60'0 0.0
2017-Jul-13 17:58N 43°24' E 004°60'0 0.0
2017-Jul-13 17:29N 43°24' E 004°60'0 0.0
2017-Jul-13 16:52N 43°24' E 004°60'0 0.0
2017-Jul-13 16:29N 43°24' E 004°60'0 0.0
2017-Jul-13 15:58N 43°24' E 004°60'0 0.0
2017-Jul-13 15:28N 43°24' E 004°60'0 0.0
2017-Jul-13 14:59N 43°24' E 004°60'0 0.0
2017-Jul-13 14:23N 43°24' E 004°60'0 0.0
2017-Jul-13 13:58N 43°24' E 004°60'0 0.0
2017-Jul-13 13:29N 43°24' E 004°60'0 0.0
2017-Jul-13 12:58N 43°24' E 004°60'0 0.0
2017-Jul-13 12:29N 43°24' E 004°60'0 0.0
2017-Jul-13 11:59N 43°24' E 004°60'0 0.0
2017-Jul-13 11:28N 43°24' E 004°60'0 0.0
2017-Jul-13 10:58N 43°24' E 004°60'0 0.0
2017-Jul-13 10:28N 43°24' E 004°60'0 0.0
2017-Jul-13 09:59N 43°24' E 004°60'0 0.0
2017-Jul-13 09:29N 43°24' E 004°60'0 0.0
2017-Jul-13 08:58N 43°24' E 004°60'0 0.0
2017-Jul-13 08:22N 43°24' E 004°60'0 0.0
2017-Jul-13 07:44N 43°24' E 004°60'0 0.0
2017-Jul-13 07:28N 43°24' E 004°60'0 0.0
2017-Jul-13 06:58N 43°24' E 004°60'0 0.0
2017-Jul-13 06:28N 43°24' E 004°60'0 0.0
2017-Jul-13 05:58N 43°24' E 004°60'0 0.0
2017-Jul-13 05:28N 43°24' E 004°60'0 0.0
2017-Jul-13 04:58N 43°24' E 004°60'0 0.0
2017-Jul-13 04:22N 43°24' E 004°60'0 0.0
2017-Jul-13 03:58N 43°24' E 004°60'0 0.0
2017-Jul-13 03:28N 43°24' E 004°60'0 0.0
2017-Jul-13 02:58N 43°24' E 004°60'0 0.0
2017-Jul-13 02:28N 43°24' E 004°60'0 0.0
2017-Jul-13 01:58N 43°24' E 004°60'0 0.0
2017-Jul-13 01:28N 43°24' E 004°60'0 0.0
2017-Jul-13 00:58N 43°24' E 004°60'0 0.0
2017-Jul-13 00:28N 43°24' E 004°60'0 0.0
2017-Jul-12 23:58N 43°24' E 004°60'0 0.0
2017-Jul-12 23:28N 43°24' E 004°60'0 0.0
2017-Jul-12 22:59N 43°24' E 004°60'0 0.0
2017-Jul-12 22:28N 43°24' E 004°60'0 0.0
2017-Jul-12 21:52N 43°24' E 004°60'0 0.0
2017-Jul-12 21:19N 43°24' E 004°60'0 0.0
2017-Jul-12 20:58N 43°24' E 004°60'0 0.0
2017-Jul-12 20:28N 43°24' E 004°60'0 0.0
2017-Jul-12 19:58N 43°24' E 004°60'0 0.0
2017-Jul-12 19:28N 43°24' E 004°60'0 0.0
2017-Jul-12 18:58N 43°24' E 004°60'0 0.0
2017-Jul-12 18:22N 43°24' E 004°60'0 0.0
2017-Jul-12 17:58N 43°24' E 004°60'0 0.0
2017-Jul-12 17:28N 43°24' E 004°60'0 0.0
2017-Jul-12 16:58N 43°24' E 004°60'0 0.0
2017-Jul-12 16:28N 43°24' E 004°60'0 0.0
2017-Jul-12 15:58N 43°24' E 004°60'0 0.0
2017-Jul-12 15:28N 43°24' E 004°60'0 0.0
2017-Jul-12 14:58N 43°24' E 004°60'0 0.0
2017-Jul-12 13:58N 43°24' E 004°60'0 0.0
2017-Jul-12 13:28N 43°24' E 004°60'0 0.0
2017-Jul-12 12:58N 43°24' E 004°60'0 0.0
2017-Jul-12 12:28N 43°24' E 004°60'0 0.0
2017-Jul-12 11:58N 43°24' E 004°60'0 0.0
2017-Jul-12 11:28N 43°24' E 004°60'0 0.0
2017-Jul-12 10:58N 43°24' E 004°60'0 0.0
2017-Jul-12 10:28N 43°24' E 004°60'0 0.0
2017-Jul-12 09:58N 43°24' E 004°60'0 0.0
2017-Jul-12 09:28N 43°24' E 004°60'0 0.0
2017-Jul-12 08:58N 43°24' E 004°60'0 0.0
2017-Jul-12 08:28N 43°24' E 004°60'0 0.0
2017-Jul-12 07:58N 43°24' E 004°60'0 0.0
2017-Jul-12 07:25N 43°24' E 004°60'0 0.0
2017-Jul-12 06:58N 43°24' E 004°60'0 0.0
2017-Jul-12 06:28N 43°24' E 004°60'0 0.0
2017-Jul-12 05:58N 43°24' E 004°60'0 0.0
2017-Jul-12 05:16N 43°24' E 004°60'0 0.0
2017-Jul-12 04:58N 43°24' E 004°60'0 0.0
2017-Jul-12 04:22N 43°24' E 004°60'0 0.0
2017-Jul-12 03:58N 43°24' E 004°60'0 0.0
2017-Jul-12 03:28N 43°24' E 004°60'0 0.0
2017-Jul-12 02:58N 43°24' E 004°60'0 0.0
2017-Jul-12 02:28N 43°24' E 004°60'0 0.0
2017-Jul-12 01:58N 43°24' E 004°60'0 0.0
2017-Jul-12 01:28N 43°24' E 004°60'0 0.0
2017-Jul-12 00:58N 43°24' E 004°60'0 0.0
2017-Jul-12 00:28N 43°24' E 004°60'0 0.0
2017-Jul-11 23:58N 43°24' E 004°60'0 0.0
2017-Jul-11 23:28N 43°24' E 004°60'0 0.0
2017-Jul-11 22:58N 43°24' E 004°60'0 0.0
2017-Jul-11 22:28N 43°24' E 004°60'0 0.0
2017-Jul-11 21:58N 43°24' E 004°60'0 0.0
2017-Jul-11 21:28N 43°24' E 004°60'0 0.0
2017-Jul-11 20:58N 43°24' E 004°60'0 0.0
2017-Jul-11 20:28N 43°24' E 004°60'0 0.0
2017-Jul-11 19:58N 43°24' E 004°60'0 0.0
2017-Jul-11 19:28N 43°24' E 004°60'0 0.0
2017-Jul-11 18:58N 43°24' E 004°60'0 0.0
2017-Jul-11 18:25N 43°24' E 004°60'0 0.0
2017-Jul-11 17:58N 43°24' E 004°60'0 0.0
2017-Jul-11 17:28N 43°24' E 004°60'0 0.0
2017-Jul-11 16:55N 43°24' E 004°60'0 0.0
2017-Jul-11 16:28N 43°24' E 004°60'0 0.0
2017-Jul-11 15:52N 43°24' E 004°60'0 0.0
2017-Jul-11 15:28N 43°24' E 004°60'0 0.0
2017-Jul-11 14:58N 43°24' E 004°60'0 0.0
2017-Jul-11 14:28N 43°24' E 004°60'0 0.0
2017-Jul-11 13:52N 43°24' E 004°60'0 0.0
2017-Jul-11 13:28N 43°24' E 004°60'0 0.0
2017-Jul-11 12:58N 43°24' E 004°60'0 0.0
2017-Jul-11 12:28N 43°24' E 004°60'0 0.0
2017-Jul-11 11:58N 43°24' E 004°60'0 0.0
2017-Jul-11 11:28N 43°24' E 004°60'0 0.0
2017-Jul-11 10:52N 43°24' E 004°60'0 0.0
2017-Jul-11 10:22N 43°24' E 004°60'0 0.0
2017-Jul-11 09:58N 43°24' E 004°60'0 0.0
2017-Jul-11 09:28N 43°24' E 004°60'0 0.0
2017-Jul-11 08:58N 43°24' E 004°60'0 0.0
2017-Jul-11 08:28N 43°24' E 004°60'0 0.0
2017-Jul-11 07:52N 43°24' E 004°60'0 0.0
2017-Jul-11 07:28N 43°24' E 004°60'0 0.0
2017-Jul-11 06:58N 43°24' E 004°60'0 0.0
2017-Jul-11 06:28N 43°24' E 004°60'0 0.0
2017-Jul-11 05:58N 43°24' E 004°60'0 0.0
2017-Jul-11 05:28N 43°24' E 004°60'0 0.0
2017-Jul-11 04:58N 43°24' E 004°60'0 0.0
2017-Jul-11 04:28N 43°24' E 004°60'0 0.0
2017-Jul-11 03:58N 43°24' E 004°60'0 0.0
2017-Jul-11 03:22N 43°24' E 004°60'0 0.0
2017-Jul-11 02:58N 43°24' E 004°60'0 0.0
2017-Jul-11 02:28N 43°24' E 004°60'0 0.0
2017-Jul-11 01:58N 43°24' E 004°60'0 0.0
2017-Jul-11 01:28N 43°24' E 004°60'0 0.0
2017-Jul-11 00:58N 43°24' E 004°60'0 0.0
2017-Jul-11 00:28N 43°24' E 004°60'0 0.0
2017-Jul-10 23:58N 43°24' E 004°60'0 0.0
2017-Jul-10 23:22N 43°24' E 004°60'0 0.0
2017-Jul-10 22:52N 43°24' E 004°60'0 0.0
2017-Jul-10 22:28N 43°24' E 004°60'0 0.0
2017-Jul-10 21:58N 43°24' E 004°60'0 0.0
2017-Jul-10 21:28N 43°24' E 004°60'0 0.0
2017-Jul-10 20:58N 43°24' E 004°60'0 0.0
2017-Jul-10 20:28N 43°24' E 004°60'0 0.0
2017-Jul-10 19:58N 43°24' E 004°60'0 0.0
2017-Jul-10 19:28N 43°24' E 004°60'0 0.0
2017-Jul-10 18:52N 43°24' E 004°60'0 0.0
2017-Jul-10 18:28N 43°24' E 004°60'0 0.0
2017-Jul-10 17:58N 43°24' E 004°60'0 0.0
2017-Jul-10 17:25N 43°24' E 004°60'0 0.0
2017-Jul-10 16:58N 43°24' E 004°60'0 0.0
2017-Jul-10 16:28N 43°24' E 004°60'0 0.0
2017-Jul-10 15:58N 43°24' E 004°60'0 0.0
2017-Jul-10 15:28N 43°24' E 004°60'0 0.0
2017-Jul-10 14:58N 43°24' E 004°60'0 0.0
2017-Jul-10 14:28N 43°24' E 004°60'0 0.0
2017-Jul-10 13:58N 43°24' E 004°60'0 0.0
2017-Jul-10 13:28N 43°24' E 004°60'0 0.0
2017-Jul-10 12:55N 43°24' E 004°60'0 0.0
2017-Jul-10 12:28N 43°24' E 004°60'0 0.0
2017-Jul-10 11:58N 43°24' E 004°60'0 0.0
2017-Jul-10 11:25N 43°24' E 004°60'0 0.0
2017-Jul-10 10:58N 43°24' E 004°60'0 0.0
2017-Jul-10 10:28N 43°24' E 004°60'0 0.0
2017-Jul-10 09:58N 43°24' E 004°60'0 0.0
2017-Jul-10 09:28N 43°24' E 004°60'0 0.0
2017-Jul-10 08:58N 43°24' E 004°60'0 0.0
2017-Jul-10 08:28N 43°24' E 004°60'0 0.0
2017-Jul-10 07:58N 43°24' E 004°60'0 0.0
2017-Jul-10 07:28N 43°24' E 004°60'0 0.0
2017-Jul-10 06:40N 43°24' E 004°60'0 0.0
2017-Jul-10 06:28N 43°24' E 004°60'0 0.0
2017-Jul-10 05:52N 43°24' E 004°60'0 0.2
2017-Jul-10 05:30N 43°24' E 004°60'3 5.1
2017-Jul-10 05:00N 43°23' E 004°57'0 0.8
2017-Jul-10 04:29N 43°22' E 004°56'0 0.0
2017-Jul-10 03:44N 43°22' E 004°56'0 0.0
2017-Jul-10 03:26N 43°22' E 004°56'0 0.0
2017-Jul-10 02:59N 43°22' E 004°56'0 0.0
2017-Jul-10 02:29N 43°22' E 004°56'0 0.1
2017-Jul-10 01:56N 43°22' E 004°56'0 0.0
2017-Jul-10 01:26N 43°22' E 004°56'0 0.1
2017-Jul-10 00:44N 43°22' E 004°56'0 0.1
2017-Jul-10 00:26N 43°22' E 004°56'0 0.0
2017-Jul-09 23:29N 43°22' E 004°56'0 0.0
2017-Jul-09 21:23N 43°22' E 004°56'0 0.0
2017-Jul-09 20:59N 43°22' E 004°56'0 0.0
2017-Jul-09 20:29N 43°22' E 004°56'0 0.0
2017-Jul-09 19:50N 43°22' E 004°56'0 0.0
2017-Jul-09 19:29N 43°22' E 004°56'0 0.1
2017-Jul-09 18:56N 43°22' E 004°56'0 0.0
2017-Jul-09 17:38N 43°22' E 004°56'0 0.0
2017-Jul-09 17:26N 43°22' E 004°56'  
Track history (hours):
 
Tides and Currents Weather Stations Pressure Air Temp Water Temp Dewpoint Dewpoint Depression Visibility Wind Speed Wind Dir Waves Ship Positions

Caletta

Last reported at 2017-Jul-19 14:45 UTC. Time now 2017-Jul-21 22:56 UTC.
Position N 26°23' W 014°55'.

Length 183 m; draft 10.4 m.

Type: Ship (hazmat cat A). MMSI: 247296300.

Date/timePositionNaut miles runAvg speedWind from/ knotsBaromVisibWave heightAir tempDewpointWater temp
2017-Jul-19 14:45N 26°23' W 014°55'1113.0
2017-Jul-19 13:54N 26°32' W 014°48'2912.7
2017-Jul-19 11:37N 26°56' W 014°29'212.7
2017-Jul-19 11:30N 26°57' W 014°28'1312.7
2017-Jul-19 10:28N 27°08' W 014°20'613.0
2017-Jul-19 10:00N 27°13' W 014°16'713.1
2017-Jul-19 09:30N 27°18' W 014°12'713.2
2017-Jul-19 09:00N 27°24' W 014°08'713.3
2017-Jul-19 08:29N 27°29' W 014°03'613.1
2017-Jul-19 08:00N 27°35' W 013°60'713.4
2017-Jul-19 07:30N 27°40' W 013°55'713.8
2017-Jul-19 07:00N 27°46' W 013°51'713.4
2017-Jul-19 06:30N 27°51' W 013°47'713.3
2017-Jul-19 06:00N 27°57' W 013°42'713.2
2017-Jul-19 05:30N 28°03' W 013°38'713.4
2017-Jul-19 05:00N 28°08' W 013°34'713.4
2017-Jul-19 04:30N 28°13' W 013°30'713.7
2017-Jul-19 04:00N 28°19' W 013°25'713.7
2017-Jul-19 03:30N 28°25' W 013°21'714.0
2017-Jul-19 03:00N 28°31' W 013°16'713.9
2017-Jul-19 02:30N 28°36' W 013°12'713.5
2017-Jul-19 02:00N 28°42' W 013°08'713.5
2017-Jul-19 01:30N 28°47' W 013°03'713.4
2017-Jul-19 01:00N 28°53' W 012°59'713.3
2017-Jul-19 00:30N 28°59' W 012°54'713.6
2017-Jul-19 00:00N 29°04' W 012°50'713.6
2017-Jul-18 23:30N 29°10' W 012°46'713.3
2017-Jul-18 23:00N 29°15' W 012°41'713.2
2017-Jul-18 22:30N 29°20' W 012°37'713.0
2017-Jul-18 22:00N 29°26' W 012°33'713.0
2017-Jul-18 21:29N 29°31' W 012°28'712.9
2017-Jul-18 20:57N 29°37' W 012°24'1512.8
2017-Jul-18 19:45N 29°50' W 012°14'1312.7
2017-Jul-18 18:43N 30°01' W 012°06'313.1
2017-Jul-18 18:30N 30°03' W 012°04'713.2
2017-Jul-18 17:58N 30°09' W 011°59'613.3
2017-Jul-18 17:30N 30°14' W 011°55'713.1
2017-Jul-18 17:00N 30°19' W 011°51'712.9
2017-Jul-18 16:30N 30°25' W 011°46'612.9
2017-Jul-18 16:00N 30°30' W 011°42'712.8
2017-Jul-18 15:28N 30°36' W 011°38'612.9
2017-Jul-18 15:00N 30°41' W 011°34'1313.1
2017-Jul-18 14:00N 30°51' W 011°25'713.4
2017-Jul-18 13:30N 30°57' W 011°21'713.7
2017-Jul-18 13:00N 31°03' W 011°17'713.4
2017-Jul-18 12:30N 31°08' W 011°12'713.5
2017-Jul-18 12:00N 31°14' W 011°08'813.6
2017-Jul-18 11:26N 31°20' W 011°03'613.7
2017-Jul-18 11:00N 31°25' W 010°59'813.6
2017-Jul-18 10:26N 31°31' W 010°53'613.8
2017-Jul-18 10:00N 31°36' W 010°50'813.7
2017-Jul-18 09:26N 31°43' W 010°44'613.4
2017-Jul-18 08:58N 31°48' W 010°40'713.0
2017-Jul-18 08:26N 31°54' W 010°35'612.9
2017-Jul-18 07:57N 31°59' W 010°31'613.1
2017-Jul-18 07:30N 32°04' W 010°28'713.4
2017-Jul-18 07:00N 32°09' W 010°23'713.6
2017-Jul-18 06:30N 32°15' W 010°19'713.4
2017-Jul-18 05:58N 32°21' W 010°14'3713.6
2017-Jul-18 03:17N 32°51' W 009°49'1513.8
2017-Jul-18 02:13N 33°02' W 009°37'613.8
2017-Jul-18 01:47N 33°06' W 009°32'413.8
2017-Jul-18 01:30N 33°09' W 009°29'1513.9
2017-Jul-18 00:25N 33°20' W 009°17'613.8
2017-Jul-17 23:59N 33°24' W 009°12'6013.2
2017-Jul-17 19:28N 34°07' W 008°22'3213.1
2017-Jul-17 17:02N 34°31' W 007°56'113.3
2017-Jul-17 16:59N 34°31' W 007°56'3413.3
2017-Jul-17 14:24N 34°56' W 007°27'813.3
2017-Jul-17 13:47N 35°02' W 007°20'2813.1
2017-Jul-17 11:38N 35°23' W 006°56'313.1
2017-Jul-17 11:25N 35°25' W 006°54'513.1
2017-Jul-17 11:00N 35°29' W 006°49'30212.3
2017-Jul-16 10:27N 37°16' W 000°59'613.1
2017-Jul-16 10:00N 37°20' W 000°53'713.2
2017-Jul-16 09:29N 37°24' W 000°47'1213.1
2017-Jul-16 08:34N 37°32' W 000°35'113.0
2017-Jul-16 08:30N 37°33' W 000°35'612.9
2017-Jul-16 08:00N 37°39' W 000°31'713.1
2017-Jul-16 07:30N 37°45' W 000°27'713.2
2017-Jul-16 06:59N 37°50' W 000°22'613.3
2017-Jul-16 06:30N 37°55' W 000°17'713.5
2017-Jul-16 06:00N 38°00' W 000°12'713.5
2017-Jul-16 05:28N 38°07' W 000°07'12112.9
2017-Jul-15 20:08N 39°42' E 001°28'212.5
2017-Jul-15 20:00N 39°43' E 001°29'612.5
2017-Jul-15 19:30N 39°48' E 001°34'612.3
2017-Jul-15 19:00N 39°53' E 001°39'611.9
2017-Jul-15 18:30N 39°58' E 001°44'712.0
2017-Jul-15 17:57N 40°03' E 001°50'512.1
2017-Jul-15 17:30N 40°07' E 001°55'612.1
2017-Jul-15 17:00N 40°11' E 001°60'612.2
2017-Jul-15 16:30N 40°16' E 002°05'612.3
2017-Jul-15 16:00N 40°21' E 002°10'612.1
2017-Jul-15 15:30N 40°25' E 002°15'612.1
2017-Jul-15 15:00N 40°30' E 002°20'1212.0
2017-Jul-15 14:00N 40°39' E 002°31'611.9
2017-Jul-15 13:30N 40°44' E 002°36'612.0
2017-Jul-15 13:00N 40°48' E 002°41'612.1
2017-Jul-15 12:30N 40°53' E 002°46'612.5
2017-Jul-15 12:00N 40°58' E 002°51'612.7
2017-Jul-15 11:30N 41°02' E 002°57'2212.7
2017-Jul-15 09:45N 41°20' E 003°16'11513.2
2017-Jul-15 01:03N 42°52' E 004°47'2313.4
2017-Jul-14 23:18N 43°13' E 005°01'413.6
2017-Jul-14 23:00N 43°17' E 004°59'612.0
2017-Jul-14 22:30N 43°23' E 004°58'1 2.8
2017-Jul-14 21:59N 43°24' E 004°60'0 0.0
2017-Jul-14 21:29N 43°24' E 004°60'0 0.0
2017-Jul-14 20:59N 43°24' E 004°60'0 0.0
2017-Jul-14 20:29N 43°24' E 004°60'0 0.0
2017-Jul-14 19:59N 43°24' E 004°60'0 0.0
2017-Jul-14 19:26N 43°24' E 004°60'0 0.0
2017-Jul-14 18:59N 43°24' E 004°60'0 0.0
2017-Jul-14 18:29N 43°24' E 004°60'0 0.0
2017-Jul-14 17:53N 43°24' E 004°60'0 0.0
2017-Jul-14 17:29N 43°24' E 004°60'0 0.0
2017-Jul-14 16:53N 43°24' E 004°60'0 0.0
2017-Jul-14 16:29N 43°24' E 004°60'0 0.0
2017-Jul-14 15:59N 43°24' E 004°60'0 0.0
2017-Jul-14 15:29N 43°24' E 004°60'0 0.0
2017-Jul-14 14:59N 43°24' E 004°60'0 0.0
2017-Jul-14 14:29N 43°24' E 004°60'0 0.0
2017-Jul-14 13:53N 43°24' E 004°60'0 0.0
2017-Jul-14 13:29N 43°24' E 004°60'0 0.0
2017-Jul-14 12:59N 43°24' E 004°60'0 0.0
2017-Jul-14 12:23N 43°24' E 004°60'0 0.0
2017-Jul-14 11:56N 43°24' E 004°60'0 0.0
2017-Jul-14 11:29N 43°24' E 004°60'0 0.0
2017-Jul-14 10:59N 43°24' E 004°60'0 0.0
2017-Jul-14 10:29N 43°24' E 004°60'0 0.0
2017-Jul-14 09:59N 43°24' E 004°60'0 0.0
2017-Jul-14 09:29N 43°24' E 004°60'0 0.0
2017-Jul-14 08:53N 43°24' E 004°60'0 0.0
2017-Jul-14 08:29N 43°24' E 004°60'0 0.0
2017-Jul-14 07:53N 43°24' E 004°60'0 0.0
2017-Jul-14 07:29N 43°24' E 004°60'0 0.0
2017-Jul-14 06:59N 43°24' E 004°60'0 0.0
2017-Jul-14 06:29N 43°24' E 004°60'0 0.0
2017-Jul-14 05:59N 43°24' E 004°60'0 0.0
2017-Jul-14 05:29N 43°24' E 004°60'0 0.0
2017-Jul-14 04:59N 43°24' E 004°60'0 0.0
2017-Jul-14 04:23N 43°24' E 004°60'0 0.0
2017-Jul-14 03:59N 43°24' E 004°60'0 0.0
2017-Jul-14 03:29N 43°24' E 004°60'0 0.0
2017-Jul-14 02:59N 43°24' E 004°60'0 0.0
2017-Jul-14 02:28N 43°24' E 004°60'0 0.0
2017-Jul-14 01:59N 43°24' E 004°60'0 0.0
2017-Jul-14 01:29N 43°24' E 004°60'0 0.0
2017-Jul-14 00:59N 43°24' E 004°60'0 0.0
2017-Jul-14 00:29N 43°24' E 004°60'0 0.0
2017-Jul-13 23:59N 43°24' E 004°60'0 0.0
2017-Jul-13 23:26N 43°24' E 004°60'0 0.0
2017-Jul-13 22:59N 43°24' E 004°60'0 0.0
2017-Jul-13 22:28N 43°24' E 004°60'0 0.0
2017-Jul-13 21:59N 43°24' E 004°60'0 0.0
2017-Jul-13 21:26N 43°24' E 004°60'0 0.0
2017-Jul-13 20:59N 43°24' E 004°60'0 0.0
2017-Jul-13 20:28N 43°24' E 004°60'0 0.0
2017-Jul-13 19:58N 43°24' E 004°60'0 0.0
2017-Jul-13 19:29N 43°24' E 004°60'0 0.0
2017-Jul-13 18:59N 43°24' E 004°60'0 0.0
2017-Jul-13 18:29N 43°24' E 004°60'0 0.0
2017-Jul-13 17:58N 43°24' E 004°60'0 0.0
2017-Jul-13 17:29N 43°24' E 004°60'0 0.0
2017-Jul-13 16:52N 43°24' E 004°60'0 0.0
2017-Jul-13 16:29N 43°24' E 004°60'0 0.0
2017-Jul-13 15:58N 43°24' E 004°60'0 0.0
2017-Jul-13 15:28N 43°24' E 004°60'0 0.0
2017-Jul-13 14:59N 43°24' E 004°60'0 0.0
2017-Jul-13 14:23N 43°24' E 004°60'0 0.0
2017-Jul-13 13:58N 43°24' E 004°60'0 0.0
2017-Jul-13 13:29N 43°24' E 004°60'0 0.0
2017-Jul-13 12:58N 43°24' E 004°60'0 0.0
2017-Jul-13 12:29N 43°24' E 004°60'0 0.0
2017-Jul-13 11:59N 43°24' E 004°60'0 0.0
2017-Jul-13 11:28N 43°24' E 004°60'0 0.0
2017-Jul-13 10:58N 43°24' E 004°60'0 0.0
2017-Jul-13 10:28N 43°24' E 004°60'0 0.0
2017-Jul-13 09:59N 43°24' E 004°60'0 0.0
2017-Jul-13 09:29N 43°24' E 004°60'0 0.0
2017-Jul-13 08:58N 43°24' E 004°60'0 0.0
2017-Jul-13 08:22N 43°24' E 004°60'0 0.0
2017-Jul-13 07:44N 43°24' E 004°60'0 0.0
2017-Jul-13 07:28N 43°24' E 004°60'0 0.0
2017-Jul-13 06:58N 43°24' E 004°60'0 0.0
2017-Jul-13 06:28N 43°24' E 004°60'0 0.0
2017-Jul-13 05:58N 43°24' E 004°60'0 0.0
2017-Jul-13 05:28N 43°24' E 004°60'0 0.0
2017-Jul-13 04:58N 43°24' E 004°60'0 0.0
2017-Jul-13 04:22N 43°24' E 004°60'0 0.0
2017-Jul-13 03:58N 43°24' E 004°60'0 0.0
2017-Jul-13 03:28N 43°24' E 004°60'0 0.0
2017-Jul-13 02:58N 43°24' E 004°60'0 0.0
2017-Jul-13 02:28N 43°24' E 004°60'0 0.0
2017-Jul-13 01:58N 43°24' E 004°60'0 0.0
2017-Jul-13 01:28N 43°24' E 004°60'0 0.0
2017-Jul-13 00:58N 43°24' E 004°60'0 0.0
2017-Jul-13 00:28N 43°24' E 004°60'0 0.0
2017-Jul-12 23:58N 43°24' E 004°60'0 0.0
2017-Jul-12 23:28N 43°24' E 004°60'0 0.0
2017-Jul-12 22:59N 43°24' E 004°60'0 0.0
2017-Jul-12 22:28N 43°24' E 004°60'0 0.0
2017-Jul-12 21:52N 43°24' E 004°60'0 0.0
2017-Jul-12 21:19N 43°24' E 004°60'0 0.0
2017-Jul-12 20:58N 43°24' E 004°60'0 0.0
2017-Jul-12 20:28N 43°24' E 004°60'0 0.0
2017-Jul-12 19:58N 43°24' E 004°60'0 0.0
2017-Jul-12 19:28N 43°24' E 004°60'0 0.0
2017-Jul-12 18:58N 43°24' E 004°60'0 0.0
2017-Jul-12 18:22N 43°24' E 004°60'0 0.0
2017-Jul-12 17:58N 43°24' E 004°60'0 0.0
2017-Jul-12 17:28N 43°24' E 004°60'0 0.0
2017-Jul-12 16:58N 43°24' E 004°60'0 0.0
2017-Jul-12 16:28N 43°24' E 004°60'0 0.0
2017-Jul-12 15:58N 43°24' E 004°60'0 0.0
2017-Jul-12 15:28N 43°24' E 004°60'0 0.0
2017-Jul-12 14:58N 43°24' E 004°60'0 0.0
2017-Jul-12 13:58N 43°24' E 004°60'0 0.0
2017-Jul-12 13:28N 43°24' E 004°60'0 0.0
2017-Jul-12 12:58N 43°24' E 004°60'0 0.0
2017-Jul-12 12:28N 43°24' E 004°60'0 0.0
2017-Jul-12 11:58N 43°24' E 004°60'0 0.0
2017-Jul-12 11:28N 43°24' E 004°60'0 0.0
2017-Jul-12 10:58N 43°24' E 004°60'0 0.0
2017-Jul-12 10:28N 43°24' E 004°60'0 0.0
2017-Jul-12 09:58N 43°24' E 004°60'0 0.0
2017-Jul-12 09:28N 43°24' E 004°60'0 0.0
2017-Jul-12 08:58N 43°24' E 004°60'0 0.0
2017-Jul-12 08:28N 43°24' E 004°60'0 0.0
2017-Jul-12 07:58N 43°24' E 004°60'0 0.0
2017-Jul-12 07:25N 43°24' E 004°60'0 0.0
2017-Jul-12 06:58N 43°24' E 004°60'0 0.0
2017-Jul-12 06:28N 43°24' E 004°60'0 0.0
2017-Jul-12 05:58N 43°24' E 004°60'0 0.0
2017-Jul-12 05:16N 43°24' E 004°60'0 0.0
2017-Jul-12 04:58N 43°24' E 004°60'0 0.0
2017-Jul-12 04:22N 43°24' E 004°60'0 0.0
2017-Jul-12 03:58N 43°24' E 004°60'0 0.0
2017-Jul-12 03:28N 43°24' E 004°60'0 0.0
2017-Jul-12 02:58N 43°24' E 004°60'0 0.0
2017-Jul-12 02:28N 43°24' E 004°60'0 0.0
2017-Jul-12 01:58N 43°24' E 004°60'0 0.0
2017-Jul-12 01:28N 43°24' E 004°60'0 0.0
2017-Jul-12 00:58N 43°24' E 004°60'0 0.0
2017-Jul-12 00:28N 43°24' E 004°60'0 0.0
2017-Jul-11 23:58N 43°24' E 004°60'0 0.0
2017-Jul-11 23:28N 43°24' E 004°60'0 0.0
2017-Jul-11 22:58N 43°24' E 004°60'0 0.0
2017-Jul-11 22:28N 43°24' E 004°60'0 0.0
2017-Jul-11 21:58N 43°24' E 004°60'0 0.0
2017-Jul-11 21:28N 43°24' E 004°60'0 0.0
2017-Jul-11 20:58N 43°24' E 004°60'0 0.0
2017-Jul-11 20:28N 43°24' E 004°60'0 0.0
2017-Jul-11 19:58N 43°24' E 004°60'0 0.0
2017-Jul-11 19:28N 43°24' E 004°60'0 0.0
2017-Jul-11 18:58N 43°24' E 004°60'0 0.0
2017-Jul-11 18:25N 43°24' E 004°60'0 0.0
2017-Jul-11 17:58N 43°24' E 004°60'0 0.0
2017-Jul-11 17:28N 43°24' E 004°60'0 0.0
2017-Jul-11 16:55N 43°24' E 004°60'0 0.0
2017-Jul-11 16:28N 43°24' E 004°60'0 0.0
2017-Jul-11 15:52N 43°24' E 004°60'0 0.0
2017-Jul-11 15:28N 43°24' E 004°60'0 0.0
2017-Jul-11 14:58N 43°24' E 004°60'0 0.0
2017-Jul-11 14:28N 43°24' E 004°60'0 0.0
2017-Jul-11 13:52N 43°24' E 004°60'0 0.0
2017-Jul-11 13:28N 43°24' E 004°60'0 0.0
2017-Jul-11 12:58N 43°24' E 004°60'0 0.0
2017-Jul-11 12:28N 43°24' E 004°60'0 0.0
2017-Jul-11 11:58N 43°24' E 004°60'0 0.0
2017-Jul-11 11:28N 43°24' E 004°60'0 0.0
2017-Jul-11 10:52N 43°24' E 004°60'0 0.0
2017-Jul-11 10:22N 43°24' E 004°60'0 0.0
2017-Jul-11 09:58N 43°24' E 004°60'0 0.0
2017-Jul-11 09:28N 43°24' E 004°60'0 0.0
2017-Jul-11 08:58N 43°24' E 004°60'0 0.0
2017-Jul-11 08:28N 43°24' E 004°60'0 0.0
2017-Jul-11 07:52N 43°24' E 004°60'0 0.0
2017-Jul-11 07:28N 43°24' E 004°60'0 0.0
2017-Jul-11 06:58N 43°24' E 004°60'0 0.0
2017-Jul-11 06:28N 43°24' E 004°60'0 0.0
2017-Jul-11 05:58N 43°24' E 004°60'0 0.0
2017-Jul-11 05:28N 43°24' E 004°60'0 0.0
2017-Jul-11 04:58N 43°24' E 004°60'0 0.0
2017-Jul-11 04:28N 43°24' E 004°60'0 0.0
2017-Jul-11 03:58N 43°24' E 004°60'0 0.0
2017-Jul-11 03:22N 43°24' E 004°60'0 0.0
2017-Jul-11 02:58N 43°24' E 004°60'0 0.0
2017-Jul-11 02:28N 43°24' E 004°60'0 0.0
2017-Jul-11 01:58N 43°24' E 004°60'0 0.0
2017-Jul-11 01:28N 43°24' E 004°60'0 0.0
2017-Jul-11 00:58N 43°24' E 004°60'0 0.0
2017-Jul-11 00:28N 43°24' E 004°60'0 0.0
2017-Jul-10 23:58N 43°24' E 004°60'0 0.0
2017-Jul-10 23:22N 43°24' E 004°60'0 0.0
2017-Jul-10 22:52N 43°24' E 004°60'0 0.0
2017-Jul-10 22:28N 43°24' E 004°60'0 0.0
2017-Jul-10 21:58N 43°24' E 004°60'0 0.0
2017-Jul-10 21:28N 43°24' E 004°60'0 0.0
2017-Jul-10 20:58N 43°24' E 004°60'0 0.0
2017-Jul-10 20:28N 43°24' E 004°60'0 0.0
2017-Jul-10 19:58N 43°24' E 004°60'0 0.0
2017-Jul-10 19:28N 43°24' E 004°60'0 0.0
2017-Jul-10 18:52N 43°24' E 004°60'0 0.0
2017-Jul-10 18:28N 43°24' E 004°60'0 0.0
2017-Jul-10 17:58N 43°24' E 004°60'0 0.0
2017-Jul-10 17:25N 43°24' E 004°60'0 0.0
2017-Jul-10 16:58N 43°24' E 004°60'0 0.0
2017-Jul-10 16:28N 43°24' E 004°60'0 0.0
2017-Jul-10 15:58N 43°24' E 004°60'0 0.0
2017-Jul-10 15:28N 43°24' E 004°60'0 0.0
2017-Jul-10 14:58N 43°24' E 004°60'0 0.0
2017-Jul-10 14:28N 43°24' E 004°60'0 0.0
2017-Jul-10 13:58N 43°24' E 004°60'0 0.0
2017-Jul-10 13:28N 43°24' E 004°60'0 0.0
2017-Jul-10 12:55N 43°24' E 004°60'0 0.0
2017-Jul-10 12:28N 43°24' E 004°60'0 0.0
2017-Jul-10 11:58N 43°24' E 004°60'0 0.0
2017-Jul-10 11:25N 43°24' E 004°60'0 0.0
2017-Jul-10 10:58N 43°24' E 004°60'0 0.0
2017-Jul-10 10:28N 43°24' E 004°60'0 0.0
2017-Jul-10 09:58N 43°24' E 004°60'0 0.0
2017-Jul-10 09:28N 43°24' E 004°60'0 0.0
2017-Jul-10 08:58N 43°24' E 004°60'0 0.0
2017-Jul-10 08:28N 43°24' E 004°60'0 0.0
2017-Jul-10 07:58N 43°24' E 004°60'0 0.0
2017-Jul-10 07:28N 43°24' E 004°60'0 0.0
2017-Jul-10 06:40N 43°24' E 004°60'0 0.0
2017-Jul-10 06:28N 43°24' E 004°60'0 0.0
2017-Jul-10 05:52N 43°24' E 004°60'0 0.2
2017-Jul-10 05:30N 43°24' E 004°60'3 5.1
2017-Jul-10 05:00N 43°23' E 004°57'0 0.8
2017-Jul-10 04:29N 43°22' E 004°56'0 0.0
2017-Jul-10 03:44N 43°22' E 004°56'0 0.0
2017-Jul-10 03:26N 43°22' E 004°56'0 0.0
2017-Jul-10 02:59N 43°22' E 004°56'0 0.0
2017-Jul-10 02:29N 43°22' E 004°56'0 0.1
2017-Jul-10 01:56N 43°22' E 004°56'0 0.0
2017-Jul-10 01:26N 43°22' E 004°56'0 0.1
2017-Jul-10 00:44N 43°22' E 004°56'0 0.1
2017-Jul-10 00:26N 43°22' E 004°56'0 0.0
2017-Jul-09 23:29N 43°22' E 004°56'0 0.0
2017-Jul-09 21:23N 43°22' E 004°56'0 0.0
2017-Jul-09 20:59N 43°22' E 004°56'0 0.0
2017-Jul-09 20:29N 43°22' E 004°56'0 0.0
2017-Jul-09 19:50N 43°22' E 004°56'0 0.0
2017-Jul-09 19:29N 43°22' E 004°56'0 0.1
2017-Jul-09 18:56N 43°22' E 004°56'0 0.0
2017-Jul-09 17:38N 43°22' E 004°56'0 0.0
2017-Jul-09 17:26N 43°22' E 004°56'  

Dump ship's entire track history